Time;durP1;ratioP1;P1;durP2;ratioP2;P2;SDS_P1;SDS_P2;PMS_P1;PMS_P2;Temp;Humidity;BMP_temperature;BMP_pressure;BME280_temperature;BME280_humidity;BME280_pressure;Samples;Min_cycle;Max_cycle;Signal;HPM_P1;HPM_P2
2021/04/11 00:00:13;;;;;;;1.52;1.35;;;12.60;56.10;;;;;;5090961;28;20564;-66
2021/04/11 00:02:39;;;;;;;2.25;0.98;;;12.50;56.50;;;;;;5086099;28;20036;-66
2021/04/11 00:05:05;;;;;;;2.75;1.17;;;12.40;56.60;;;;;;5073016;28;20024;-64
2021/04/11 00:07:31;;;;;;;2.10;0.90;;;12.40;56.50;;;;;;5090597;28;20126;-66
2021/04/11 00:09:57;;;;;;;3.42;0.85;;;12.40;56.70;;;;;;5094634;28;20085;-65
2021/04/11 00:12:23;;;;;;;1.55;1.00;;;12.40;57.00;;;;;;5094711;28;20111;-64
2021/04/11 00:14:48;;;;;;;1.70;0.98;;;12.30;57.10;;;;;;5093612;28;20036;-64
2021/04/11 00:17:14;;;;;;;1.92;1.15;;;12.20;57.50;;;;;;5094999;28;20020;-64
2021/04/11 00:19:40;;;;;;;1.98;1.00;;;12.10;57.60;;;;;;5093909;28;20111;-64
2021/04/11 00:22:06;;;;;;;1.02;0.88;;;12.10;57.90;;;;;;5094682;28;20103;-64
2021/04/11 00:24:32;;;;;;;1.10;0.88;;;12.00;58.10;;;;;;5093923;28;20034;-66
2021/04/11 00:26:58;;;;;;;2.47;0.93;;;12.00;58.30;;;;;;5086639;28;20427;-66
2021/04/11 00:29:24;;;;;;;3.33;1.08;;;11.90;58.40;;;;;;5094603;28;20035;-64
2021/04/11 00:31:50;;;;;;;1.50;1.10;;;11.80;58.70;;;;;;5093881;28;20085;-64
2021/04/11 00:34:15;;;;;;;3.38;1.50;;;11.70;59.20;;;;;;5094457;28;20487;-64
2021/04/11 00:36:41;;;;;;;1.02;1.00;;;11.60;60.00;;;;;;5093843;28;20028;-65
2021/04/11 00:39:07;;;;;;;2.20;1.17;;;11.60;60.30;;;;;;5076293;28;20107;-65
2021/04/11 00:41:38;;;;;;;3.25;1.27;;;11.40;60.90;;;;;;5093737;28;20020;-66
2021/04/11 00:44:04;;;;;;;;;;;11.30;61.30;;;;;;5094601;28;20107;-65
2021/04/11 00:46:55;;;;;;;5.05;1.40;;;11.30;61.80;;;;;;5094186;28;19908;-66
2021/04/11 00:49:38;;;;;;;2.10;1.23;;;11.20;62.00;;;;;;5094100;28;20395;-65
2021/04/11 00:52:06;;;;;;;1.60;1.13;;;11.00;62.20;;;;;;5094094;28;20039;-64
2021/04/11 00:54:32;;;;;;;2.85;1.20;;;10.90;62.60;;;;;;5093066;28;20528;-66
2021/04/11 00:56:59;;;;;;;2.63;1.30;;;10.80;63.10;;;;;;5093947;28;20031;-65
2021/04/11 00:59:25;;;;;;;1.52;0.88;;;10.70;63.20;;;;;;5094006;28;20384;-65
2021/04/11 01:01:50;;;;;;;2.58;1.20;;;10.70;63.40;;;;;;5094239;28;20039;-65
2021/04/11 01:04:17;;;;;;;1.30;1.00;;;10.50;63.00;;;;;;5094047;28;20036;-65
2021/04/11 01:06:50;;;;;;;3.20;1.48;;;10.50;63.40;;;;;;5093404;28;20111;-65
2021/04/11 01:09:29;;;;;;;6.03;1.08;;;10.50;63.50;;;;;;5093868;28;20119;-65
2021/04/11 01:11:57;;;;;;;1.90;0.90;;;10.50;63.50;;;;;;5093193;28;20074;-65
2021/04/11 01:14:23;;;;;;;2.25;0.95;;;10.50;63.90;;;;;;5085314;28;20040;-65
2021/04/11 01:16:49;;;;;;;2.55;1.00;;;10.50;64.00;;;;;;5074909;28;20350;-65
2021/04/11 01:19:21;;;;;;;2.90;1.30;;;10.50;63.70;;;;;;5093310;28;20039;-65
2021/04/11 01:22:22;;;;;;;2.97;1.27;;;10.50;63.80;;;;;;5092402;28;20435;-65
2021/04/11 01:24:51;;;;;;;3.03;0.98;;;10.50;63.90;;;;;;5086494;28;20135;-65
2021/04/11 01:27:21;;;;;;;1.37;0.97;;;10.50;63.80;;;;;;5093543;28;20477;-66
2021/04/11 01:29:48;;;;;;;2.05;1.33;;;10.50;64.10;;;;;;5086138;28;20044;-65
2021/04/11 01:32:14;;;;;;;1.73;1.27;;;10.50;64.50;;;;;;5093716;28;20036;-65
2021/04/11 01:34:41;;;;;;;4.78;1.23;;;10.50;64.60;;;;;;5092509;28;20028;-65
2021/04/11 01:37:09;;;;;;;1.98;1.20;;;10.50;64.90;;;;;;5093310;28;20028;-64
2021/04/11 01:39:39;;;;;;;2.33;1.15;;;10.50;65.30;;;;;;5074552;28;20040;-66
2021/04/11 01:42:06;;;;;;;2.72;1.30;;;10.40;65.30;;;;;;5085735;28;20024;-65
2021/04/11 01:44:35;;;;;;;1.10;0.98;;;10.40;65.20;;;;;;5092969;28;20091;-66
2021/04/11 01:47:01;;;;;;;2.33;1.20;;;10.50;64.80;;;;;;5092902;28;20075;-65
2021/04/11 01:49:28;;;;;;;1.75;1.00;;;10.50;64.80;;;;;;5093210;28;20093;-65
2021/04/11 01:52:23;;;;;;;1.98;1.08;;;10.50;64.90;;;;;;5092317;28;20047;-65
2021/04/11 01:54:49;;;;;;;1.55;1.13;;;10.60;64.90;;;;;;5084540;28;20412;-65
2021/04/11 01:57:23;;;;;;;1.00;0.63;;;10.60;64.80;;;;;;5093184;28;20028;-65
2021/04/11 01:59:50;;;;;;;1.58;1.00;;;10.60;65.10;;;;;;5092169;28;20024;-66
2021/04/11 02:02:17;;;;;;;1.33;0.90;;;10.60;65.00;;;;;;5093080;28;20040;-65
2021/04/11 02:04:45;;;;;;;3.03;0.95;;;10.70;64.30;;;;;;5091931;28;20039;-65
2021/04/11 02:07:12;;;;;;;1.52;0.80;;;10.80;64.50;;;;;;5093014;28;20032;-63
2021/04/11 02:09:46;;;;;;;1.08;0.95;;;10.90;64.00;;;;;;5091630;28;20393;-65
2021/04/11 02:12:14;;;;;;;1.98;1.00;;;10.90;63.90;;;;;;5086149;28;20164;-64
2021/04/11 02:14:41;;;;;;;4.35;1.38;;;11.00;63.30;;;;;;5091932;28;20048;-64
2021/04/11 02:17:07;;;;;;;3.05;0.93;;;11.10;62.80;;;;;;5074477;28;21623;-64
2021/04/11 02:19:33;;;;;;;2.83;0.90;;;11.20;62.60;;;;;;5092580;28;20469;-65
2021/04/11 02:22:27;;;;;;;1.33;0.95;;;11.20;62.90;;;;;;5092320;28;20020;-62
2021/04/11 02:24:53;;;;;;;2.53;1.30;;;11.20;63.20;;;;;;5091716;28;20263;-64
2021/04/11 02:27:21;;;;;;;2.67;1.52;;;11.30;62.60;;;;;;5092287;28;20039;-64
2021/04/11 02:29:47;;;;;;;3.83;2.28;;;11.30;63.30;;;;;;5091851;28;20060;-64
2021/04/11 02:32:15;;;;;;;3.53;2.30;;;11.20;63.90;;;;;;5092355;28;20028;-63
2021/04/11 02:34:43;;;;;;;5.88;2.60;;;11.20;64.30;;;;;;5091822;28;20031;-64
2021/04/11 02:37:14;;;;;;;6.13;2.53;;;11.10;64.70;;;;;;5092186;28;20023;-65
2021/04/11 02:39:42;;;;;;;4.60;2.70;;;11.10;65.40;;;;;;5091753;28;20036;-64
2021/04/11 02:42:17;;;;;;;3.92;2.10;;;11.00;66.00;;;;;;5091913;28;20050;-66
2021/04/11 02:44:45;;;;;;;4.50;1.80;;;11.00;66.50;;;;;;5090975;28;20028;-64
2021/04/11 02:47:12;;;;;;;4.32;1.50;;;10.90;66.80;;;;;;5092067;28;20016;-64
2021/04/11 02:49:38;;;;;;;1.65;1.20;;;10.90;67.20;;;;;;5090744;28;20046;-65
2021/04/11 02:52:18;;;;;;;3.88;1.40;;;10.80;67.60;;;;;;5092329;28;20032;-63
2021/04/11 02:54:44;;;;;;;2.25;1.25;;;10.80;67.90;;;;;;5091950;28;20032;-64
2021/04/11 02:57:10;;;;;;;2.10;1.25;;;10.70;67.90;;;;;;5092564;28;20042;-64
2021/04/11 02:59:37;;;;;;;2.50;1.13;;;10.70;68.20;;;;;;5091501;28;20254;-66
2021/04/11 03:02:04;;;;;;;2.30;1.27;;;10.70;68.50;;;;;;5091843;28;20032;-64
2021/04/11 03:04:29;;;;;;;2.65;1.48;;;10.60;69.30;;;;;;5073905;28;20415;-64
2021/04/11 03:07:00;;;;;;;1.00;0.80;;;10.60;69.50;;;;;;5091278;28;20028;-63
2021/04/11 03:09:32;;;;;;;3.15;0.80;;;10.60;70.20;;;;;;5092113;28;20071;-64
2021/04/11 03:11:59;;;;;;;2.03;0.93;;;10.60;70.80;;;;;;5090880;28;20027;-65
2021/04/11 03:14:33;;;;;;;2.80;1.42;;;10.50;71.40;;;;;;5091464;28;20040;-64
2021/04/11 03:17:00;;;;;;;2.42;1.15;;;10.50;71.70;;;;;;5090751;28;20089;-64
2021/04/11 03:19:46;;;;;;;3.20;1.38;;;10.50;72.00;;;;;;5091760;28;20544;-62
2021/04/11 03:22:14;;;;;;;2.05;1.10;;;10.40;71.80;;;;;;5092146;28;20034;-64
2021/04/11 03:24:39;;;;;;;1.63;1.10;;;10.40;71.90;;;;;;5090753;28;20111;-64
2021/04/11 03:27:38;;;;;;;1.58;1.20;;;10.40;72.10;;;;;;5091920;28;20103;-64
2021/04/11 03:30:36;;;;;;;3.20;1.70;;;10.30;71.80;;;;;;5091589;28;20032;-64
2021/04/11 03:33:07;;;;;;;2.25;1.65;;;10.30;71.50;;;;;;5079292;28;20443;-63
2021/04/11 03:35:36;;;;;;;2.78;1.77;;;10.30;72.70;;;;;;5091653;28;20028;-64
2021/04/11 03:38:03;;;;;;;4.43;1.70;;;10.30;73.40;;;;;;5090853;28;20028;-63
2021/04/11 03:40:34;;;;;;;3.13;1.85;;;10.20;73.20;;;;;;5091274;28;20031;-64
2021/04/11 03:43:24;;;;;;;3.70;2.28;;;10.20;73.00;;;;;;5091132;28;20039;-64
2021/04/11 03:45:51;;;;;;;7.00;2.97;;;10.20;73.90;;;;;;5089815;28;20028;-64
2021/04/11 03:48:41;;;;;;;3.53;2.10;;;10.10;74.50;;;;;;5095748;28;20115;-63
2021/04/11 03:51:17;;;;;;;4.63;2.17;;;10.10;74.60;;;;;;5099005;28;20059;-64
2021/04/11 03:53:48;;;;;;;3.13;1.88;;;10.00;74.80;;;;;;5101959;28;20109;-64
2021/04/11 03:56:17;;;;;;;4.07;2.35;;;9.90;75.70;;;;;;5083394;28;20459;-63
2021/04/11 03:58:47;;;;;;;3.30;1.58;;;9.90;75.80;;;;;;5098178;28;20067;-63
2021/04/11 04:01:18;;;;;;;2.15;1.75;;;9.90;76.00;;;;;;5099426;28;20510;-63
2021/04/11 04:03:47;;;;;;;7.10;1.83;;;9.80;75.50;;;;;;5097294;28;20107;-65
2021/04/11 04:06:29;;;;;;;2.58;1.92;;;9.80;75.20;;;;;;5097852;28;20109;-61
2021/04/11 04:08:54;;;;;;;3.35;1.90;;;9.80;76.00;;;;;;5094625;28;20028;-64
2021/04/11 04:11:48;;;;;;;4.30;2.22;;;9.80;76.40;;;;;;5100347;28;20031;-64
2021/04/11 04:14:27;;;;;;;2.45;1.67;;;9.70;76.80;;;;;;5099927;28;20457;-66
2021/04/11 04:17:08;;;;;;;3.70;1.92;;;9.70;76.60;;;;;;5096330;28;20133;-67
2021/04/11 04:20:12;;;;;;;2.95;1.63;;;9.70;76.60;;;;;;5088615;28;20080;-65
2021/04/11 04:22:51;;;;;;;3.33;1.80;;;9.70;76.40;;;;;;5073068;28;20462;-67
2021/04/11 04:25:48;;;;;;;3.15;1.42;;;9.70;76.00;;;;;;5097818;28;20507;-63
2021/04/11 04:28:44;;;;;;;1.73;1.58;;;9.70;76.60;;;;;;5089258;28;20071;-66
2021/04/11 04:31:31;;;;;;;4.65;2.00;;;9.70;76.90;;;;;;5095984;28;20409;-64
2021/04/11 04:34:06;;;;;;;2.00;1.40;;;9.70;76.20;;;;;;5095345;28;20032;-64
2021/04/11 04:36:36;;;;;;;3.42;2.30;;;9.70;76.10;;;;;;5095319;28;20094;-64
2021/04/11 04:39:12;;;;;;;5.85;2.22;;;9.80;76.20;;;;;;5094410;28;20035;-63
2021/04/11 04:41:46;;;;;;;7.20;3.08;;;9.80;75.80;;;;;;5096444;28;20085;-65
2021/04/11 04:44:24;;;;;;;4.38;2.40;;;9.80;75.50;;;;;;5096488;28;20024;-62
2021/04/11 04:47:03;;;;;;;4.22;2.40;;;9.80;75.30;;;;;;5088164;28;20032;-64
2021/04/11 04:49:36;;;;;;;3.47;2.50;;;9.80;75.70;;;;;;5094744;28;20131;-66
2021/04/11 04:52:07;;;;;;;4.43;1.90;;;9.80;75.70;;;;;;5094802;28;20031;-64
2021/04/11 04:54:46;;;;;;;3.25;1.50;;;9.80;75.70;;;;;;5094632;28;20023;-62
2021/04/11 04:57:18;;;;;;;3.85;1.77;;;9.80;75.90;;;;;;5094779;28;20039;-65
2021/04/11 05:00:13;;;;;;;5.28;1.48;;;9.80;75.50;;;;;;5093775;28;20464;-65
2021/04/11 05:02:54;;;;;;;2.97;1.98;;;9.80;75.60;;;;;;5078002;28;20060;-65
2021/04/11 05:05:21;;;;;;;2.85;1.55;;;9.90;75.90;;;;;;5094243;28;20035;-64
2021/04/11 05:08:02;;;;;;;3.00;1.75;;;9.90;76.00;;;;;;5093442;28;20028;-64
2021/04/11 05:10:38;;;;;;;2.75;2.00;;;9.90;76.00;;;;;;5094272;28;20036;-65
2021/04/11 05:13:19;;;;;;;7.80;2.25;;;9.90;75.60;;;;;;5093451;28;20039;-65
2021/04/11 05:15:51;;;;;;;4.28;2.22;;;9.90;75.50;;;;;;5092820;28;20067;-66
2021/04/11 05:18:44;;;;;;;6.78;2.47;;;9.90;75.40;;;;;;5094145;28;20126;-65
2021/04/11 05:21:16;;;;;;;4.18;2.50;;;10.00;75.70;;;;;;5092923;28;20039;-62
2021/04/11 05:24:18;;;;;;;4.93;2.25;;;10.00;75.70;;;;;;5093547;28;20084;-66
2021/04/11 05:27:12;;;;;;;7.60;3.50;;;10.00;75.80;;;;;;5084745;28;20514;-65
2021/04/11 05:29:54;;;;;;;5.38;3.05;;;10.10;76.00;;;;;;5093075;28;20056;-65
2021/04/11 05:32:21;;;;;;;6.90;3.08;;;10.10;75.90;;;;;;5093654;28;20094;-65
2021/04/11 05:34:46;;;;;;;8.13;3.17;;;10.20;76.20;;;;;;5074820;28;20121;-66
2021/04/11 05:37:47;;;;;;;4.90;2.92;;;10.20;76.20;;;;;;5093320;28;20032;-65
2021/04/11 05:40:22;;;;;;;7.53;3.03;;;10.20;76.00;;;;;;5053549;28;20051;-66
2021/04/11 05:43:01;;;;;;;6.15;3.03;;;10.30;76.80;;;;;;5092722;28;20028;-66
2021/04/11 05:45:32;;;;;;;5.35;2.53;;;10.40;76.40;;;;;;5093203;28;20032;-66
2021/04/11 05:48:36;;;;;;;4.95;2.88;;;10.50;75.30;;;;;;5092768;28;20058;-66
2021/04/11 05:51:20;;;;;;;3.97;2.65;;;10.50;75.10;;;;;;5092634;28;20039;-66
2021/04/11 05:53:51;;;;;;;7.97;3.17;;;10.60;75.50;;;;;;5092534;28;20473;-66
2021/04/11 05:56:25;;;;;;;7.05;3.33;;;10.70;75.20;;;;;;5093914;28;20064;-65
2021/04/11 05:58:57;;;;;;;7.13;3.70;;;10.80;74.90;;;;;;5092268;28;20149;-66
2021/04/11 06:01:34;;;;;;;6.47;4.15;;;10.80;74.20;;;;;;5093280;28;20028;-66
2021/04/11 06:04:21;;;;;;;9.43;4.63;;;10.90;73.80;;;;;;5091507;28;20868;-66
2021/04/11 06:07:00;;;;;;;7.28;4.28;;;11.00;73.90;;;;;;5091480;28;20032;-63
2021/04/11 06:09:46;;;;;;;12.65;5.35;;;11.10;73.60;;;;;;5092800;28;20393;-65
2021/04/11 06:12:33;;;;;;;7.95;4.82;;;11.20;72.90;;;;;;5092729;28;20036;-66
2021/04/11 06:15:40;;;;;;;9.25;4.88;;;11.30;72.70;;;;;;5092277;28;20043;-66
2021/04/11 06:18:07;;;;;;;10.38;5.07;;;11.40;73.00;;;;;;5071192;28;20052;-66
2021/04/11 06:20:34;;;;;;;7.43;4.18;;;11.40;72.50;;;;;;5092770;28;20040;-65
2021/04/11 06:23:18;;;;;;;7.00;3.55;;;11.50;71.50;;;;;;5073729;28;20078;-66
2021/04/11 06:26:11;;;;;;;6.65;3.17;;;11.60;70.80;;;;;;5092876;28;20032;-67
2021/04/11 06:28:44;;;;;;;4.75;3.00;;;11.80;70.50;;;;;;5086518;28;20166;-67
2021/04/11 06:31:16;;;;;;;7.25;2.97;;;11.90;69.90;;;;;;5093217;28;20032;-67
2021/04/11 06:33:46;;;;;;;6.20;3.63;;;12.10;69.10;;;;;;5092436;28;20028;-67
2021/04/11 06:36:17;;;;;;;4.87;2.40;;;12.20;68.90;;;;;;5092276;28;20020;-66
2021/04/11 06:38:48;;;;;;;6.00;2.58;;;12.40;68.80;;;;;;5090821;28;20024;-66
2021/04/11 06:41:38;;;;;;;7.13;3.75;;;12.50;68.60;;;;;;5091384;28;20103;-65
2021/04/11 06:44:28;;;;;;;5.40;3.38;;;12.70;67.60;;;;;;5091571;28;20028;-67
2021/04/11 06:47:25;;;;;;;8.15;3.55;;;12.90;66.40;;;;;;5091542;28;20118;-66
2021/04/11 06:50:15;;;;;;;4.32;2.60;;;13.00;66.00;;;;;;5054999;28;20047;-65
2021/04/11 06:53:05;;;;;;;5.68;2.33;;;13.10;65.40;;;;;;5092096;28;20054;-67
2021/04/11 06:55:59;;;;;;;3.92;2.50;;;13.10;65.50;;;;;;5092023;28;20056;-66
2021/04/11 06:58:56;;;;;;;4.70;2.28;;;13.10;65.60;;;;;;5089581;28;20048;-65
2021/04/11 07:01:47;;;;;;;3.10;1.98;;;13.20;65.20;;;;;;5087496;28;20637;-65
2021/04/11 07:04:16;;;;;;;2.55;2.13;;;13.30;65.00;;;;;;5084818;28;20024;-65
2021/04/11 07:06:49;;;;;;;6.00;2.30;;;13.40;64.80;;;;;;5091551;28;20069;-67
2021/04/11 07:09:43;;;;;;;5.25;2.20;;;13.50;64.70;;;;;;5091032;28;20039;-66
2021/04/11 07:12:33;;;;;;;3.20;1.17;;;13.70;64.20;;;;;;5090527;28;20026;-71
2021/04/11 07:15:01;;;;;;;3.28;1.23;;;13.80;61.40;;;;;;5091174;28;20074;-65
2021/04/11 07:17:42;;;;;;;2.47;1.15;;;14.00;60.20;;;;;;5091367;28;20081;-66
2021/04/11 07:20:31;;;;;;;2.78;1.05;;;14.20;59.00;;;;;;5090361;28;20020;-68
2021/04/11 07:23:44;;;;;;;2.80;1.20;;;14.40;58.60;;;;;;5090806;28;20028;-65
2021/04/11 07:26:21;;;;;;;3.47;2.33;;;14.60;58.40;;;;;;4991670;28;21022;-66
2021/04/11 07:29:09;;;;;;;3.20;2.08;;;14.90;60.30;;;;;;5080581;28;20082;-67
2021/04/11 07:31:50;;;;;;;5.00;2.67;;;15.00;59.50;;;;;;5044476;28;20074;-65
2021/04/11 07:34:49;;;;;;;5.28;2.08;;;15.20;58.60;;;;;;5091112;28;20024;-67
2021/04/11 07:37:29;;;;;;;6.10;2.20;;;15.40;57.50;;;;;;5086554;28;20032;-65
2021/04/11 07:40:15;;;;;;;4.57;1.80;;;15.50;56.90;;;;;;5090337;28;20109;-66
2021/04/11 07:42:49;;;;;;;2.10;1.58;;;15.70;57.00;;;;;;5091527;28;20039;-67
2021/04/11 07:45:25;;;;;;;2.28;1.00;;;15.90;54.70;;;;;;5067167;28;20419;-65
2021/04/11 07:48:18;;;;;;;2.10;1.17;;;16.10;53.60;;;;;;5092157;28;20024;-65
2021/04/11 07:51:02;;;;;;;2.63;1.23;;;16.20;53.30;;;;;;5091316;28;20043;-66
2021/04/11 07:53:44;;;;;;;1.67;1.10;;;16.40;53.20;;;;;;5090626;28;20031;-67
2021/04/11 07:56:58;;;;;;;2.03;1.20;;;16.40;52.80;;;;;;5090786;28;20457;-65
2021/04/11 08:00:12;;;;;;;3.90;1.17;;;16.60;52.30;;;;;;5077656;28;20060;-66
2021/04/11 08:03:01;;;;;;;1.65;1.17;;;16.80;51.60;;;;;;5004946;28;20056;-66
2021/04/11 08:05:49;;;;;;;2.65;1.27;;;17.00;51.10;;;;;;4989509;28;20034;-64
2021/04/11 08:08:51;;;;;;;3.17;1.58;;;17.10;51.10;;;;;;4995594;28;20065;-64
2021/04/11 08:11:22;;;;;;;1.83;1.35;;;17.30;50.60;;;;;;4999751;28;20054;-66
2021/04/11 08:14:32;;;;;;;3.92;1.30;;;17.40;50.40;;;;;;5004313;28;20044;-66
2021/04/11 08:17:05;;;;;;;3.20;1.02;;;17.30;50.60;;;;;;4927474;29;20055;-66
2021/04/11 08:19:48;;;;;;;2.00;1.17;;;17.20;50.60;;;;;;4930751;29;20040;-64
2021/04/11 08:22:39;;;;;;;2.05;1.08;;;17.10;50.80;;;;;;4930125;29;20035;-66
2021/04/11 08:25:10;;;;;;;2.55;1.15;;;17.00;51.40;;;;;;4930362;29;20047;-66
2021/04/11 08:28:06;;;;;;;2.75;1.00;;;16.90;51.70;;;;;;4930964;29;20460;-65
2021/04/11 08:31:06;;;;;;;3.85;1.00;;;16.90;51.80;;;;;;4924294;29;20058;-65
2021/04/11 08:33:50;;;;;;;1.88;1.00;;;17.00;51.60;;;;;;4889783;29;20047;-67
2021/04/11 08:36:53;;;;;;;1.60;0.80;;;17.20;51.30;;;;;;4950783;28;20038;-65
2021/04/11 08:39:38;;;;;;;1.95;1.10;;;17.30;51.20;;;;;;4923323;29;20056;-67
2021/04/11 08:42:24;;;;;;;2.20;0.60;;;17.50;51.00;;;;;;4953514;28;20043;-67
2021/04/11 08:45:11;;;;;;;3.28;0.80;;;17.70;50.40;;;;;;4968112;28;20106;-66
2021/04/11 08:48:00;;;;;;;2.03;0.80;;;17.90;49.70;;;;;;5022526;28;20048;-66
2021/04/11 08:50:40;;;;;;;1.63;0.77;;;18.10;48.90;;;;;;5093339;28;20115;-67
2021/04/11 08:53:27;;;;;;;0.63;0.63;;;18.30;48.80;;;;;;5092965;28;20574;-66
2021/04/11 08:56:00;;;;;;;1.17;0.80;;;18.40;48.70;;;;;;5094583;28;20024;-67
2021/04/11 08:59:06;;;;;;;2.05;0.70;;;18.60;48.00;;;;;;5093522;28;20036;-65
2021/04/11 09:02:02;;;;;;;2.00;1.00;;;18.70;47.90;;;;;;5093412;28;20622;-67
2021/04/11 09:04:51;;;;;;;0.88;0.77;;;18.70;47.30;;;;;;5093406;28;20036;-68
2021/04/11 09:07:40;;;;;;;1.10;0.88;;;18.60;47.40;;;;;;5087797;28;20040;-66
2021/04/11 09:10:47;;;;;;;1.10;0.70;;;18.50;47.50;;;;;;5092315;28;20024;-65
2021/04/11 09:13:32;;;;;;;2.15;0.80;;;18.50;48.00;;;;;;5092650;28;20036;-66
2021/04/11 09:16:32;;;;;;;5.18;0.90;;;18.50;47.40;;;;;;5092653;28;20051;-68
2021/04/11 09:19:26;;;;;;;6.13;1.08;;;18.40;47.70;;;;;;5090982;28;20024;-67
2021/04/11 09:22:29;;;;;;;4.10;1.00;;;18.40;47.80;;;;;;5071394;28;20028;-66
2021/04/11 09:25:07;;;;;;;2.38;0.80;;;18.40;47.70;;;;;;5093227;28;20103;-65
2021/04/11 09:27:54;;;;;;;1.23;0.90;;;18.50;47.40;;;;;;5074780;28;20043;-64
2021/04/11 09:30:35;;;;;;;2.67;1.10;;;18.60;47.40;;;;;;5084166;28;20084;-64
2021/04/11 09:33:09;;;;;;;;;;;18.70;46.80;;;;;;5086678;28;20077;-65
2021/04/11 09:35:42;;;;;;;4.72;1.67;;;18.70;46.80;;;;;;5093149;28;20372;-67
2021/04/11 09:38:32;;;;;;;5.43;1.05;;;18.80;46.50;;;;;;5092855;28;20024;-66
2021/04/11 09:41:13;;;;;;;4.97;1.05;;;18.70;46.90;;;;;;5090607;28;20036;-67
2021/04/11 09:44:18;;;;;;;2.45;1.00;;;18.60;46.70;;;;;;5092877;28;20385;-66
2021/04/11 09:46:46;;;;;;;3.33;0.85;;;18.80;46.40;;;;;;5070888;28;20032;-67
2021/04/11 09:49:15;;;;;;;1.33;0.98;;;18.70;46.60;;;;;;5084347;28;20040;-65
2021/04/11 09:52:04;;;;;;;2.85;0.98;;;18.60;46.70;;;;;;5093045;28;20373;-66
2021/04/11 09:54:33;;;;;;;4.60;0.95;;;18.60;47.00;;;;;;5092876;28;20028;-65
2021/04/11 09:56:58;;;;;;;3.72;0.82;;;18.50;46.90;;;;;;5092000;28;20025;-68
2021/04/11 09:59:51;;;;;;;2.03;0.80;;;18.50;46.90;;;;;;5091548;28;20035;-64
2021/04/11 10:02:35;;;;;;;3.70;1.55;;;18.30;47.30;;;;;;5092144;28;20066;-65
2021/04/11 10:05:22;;;;;;;1.92;0.88;;;18.40;47.30;;;;;;5091590;28;20030;-66
2021/04/11 10:08:19;;;;;;;2.22;1.10;;;18.40;47.20;;;;;;5074458;28;20048;-64
2021/04/11 10:11:18;;;;;;;1.63;1.10;;;18.50;46.60;;;;;;5092331;28;20119;-67
2021/04/11 10:14:14;;;;;;;2.53;1.10;;;18.70;46.40;;;;;;5092369;28;20032;-65
2021/04/11 10:17:28;;;;;;;1.23;0.88;;;18.80;45.80;;;;;;5092119;28;20047;-69
2021/04/11 10:20:13;;;;;;;1.65;0.98;;;19.10;45.30;;;;;;5011107;28;20094;-74
2021/04/11 10:22:42;;;;;;;2.67;0.90;;;19.30;57.30;;;;;;5092549;28;20038;-74
2021/04/11 10:25:37;;;;;;;2.03;0.93;;;19.70;67.40;;;;;;5091734;28;20020;-74
2021/04/11 10:28:11;;;;;;;4.65;1.23;;;20.00;43.60;;;;;;5091362;28;20461;-75
2021/04/11 10:30:39;;;;;;;3.17;1.15;;;20.20;43.50;;;;;;5091545;28;20039;-75
2021/04/11 10:33:11;;;;;;;2.47;0.70;;;20.50;43.00;;;;;;5091257;28;20423;-79
2021/04/11 10:35:46;;;;;;;2.70;1.08;;;20.80;42.30;;;;;;5084693;28;20046;-76
2021/04/11 10:38:11;;;;;;;3.30;1.33;;;21.10;41.50;;;;;;5091285;28;20480;-72
2021/04/11 10:40:55;;;;;;;1.70;0.82;;;21.30;40.70;;;;;;5091714;28;20031;-71
2021/04/11 10:43:35;;;;;;;1.92;0.93;;;21.30;40.70;;;;;;5091465;28;20358;-76
2021/04/11 10:46:21;;;;;;;;;;;21.40;41.00;;;;;;5091820;28;20077;-76
2021/04/11 10:49:20;;;;;;;1.25;0.75;;;21.40;40.20;;;;;;5091980;28;20396;-76
2021/04/11 10:52:01;;;;;;;3.25;1.00;;;21.20;40.10;;;;;;5073504;28;20032;-75
2021/04/11 10:54:59;;;;;;;1.95;1.20;;;21.00;40.60;;;;;;5092297;28;20039;-72
2021/04/11 10:57:43;;;;;;;3.65;1.00;;;20.80;41.10;;;;;;5080301;28;20449;-74
2021/04/11 11:00:11;;;;;;;1.60;0.88;;;20.60;41.00;;;;;;5091189;28;20031;-75
2021/04/11 11:02:51;;;;;;;3.30;0.90;;;20.30;41.30;;;;;;5092513;28;20077;-76
2021/04/11 11:05:19;;;;;;;3.37;1.07;;;20.10;41.90;;;;;;5092229;28;20036;-74
2021/04/11 11:08:04;;;;;;;2.53;0.93;;;19.90;42.40;;;;;;5092167;28;20035;-73
2021/04/11 11:11:06;;;;;;;2.88;0.90;;;19.80;42.90;;;;;;5091519;28;20044;-71
2021/04/11 11:13:35;;;;;;;3.03;1.17;;;19.60;42.60;;;;;;5073193;28;20036;-75
2021/04/11 11:16:31;;;;;;;2.95;1.55;;;19.40;43.40;;;;;;5090872;28;20489;-75
2021/04/11 11:19:19;;;;;;;5.40;1.30;;;19.30;43.40;;;;;;5084821;28;20315;-72
2021/04/11 11:21:48;;;;;;;4.75;1.13;;;19.20;43.80;;;;;;5073624;28;20118;-73
2021/04/11 11:24:49;;;;;;;2.50;1.40;;;19.10;44.00;;;;;;5091168;28;20067;-72
2021/04/11 11:27:24;;;;;;;3.15;1.38;;;19.00;44.30;;;;;;5090246;28;20107;-69
2021/04/11 11:30:10;;;;;;;3.40;1.77;;;19.00;44.50;;;;;;5090732;28;20039;-72
2021/04/11 11:33:18;;;;;;;3.20;1.60;;;19.00;44.70;;;;;;5091382;28;20474;-69
2021/04/11 11:36:10;;;;;;;2.90;1.50;;;19.10;44.60;;;;;;5091108;28;20024;-68
2021/04/11 11:38:48;;;;;;;1.67;1.15;;;19.20;44.30;;;;;;5091360;28;20024;-69
2021/04/11 11:41:47;;;;;;;1.23;1.05;;;19.30;44.20;;;;;;5090334;28;20073;-67
2021/04/11 11:44:21;;;;;;;1.37;1.10;;;19.50;44.20;;;;;;5090321;28;20065;-67
2021/04/11 11:46:55;;;;;;;5.47;1.42;;;19.80;43.70;;;;;;5089983;28;20055;-68
2021/04/11 11:49:41;;;;;;;2.40;0.85;;;20.10;42.80;;;;;;5089243;28;20045;-69
2021/04/11 11:52:40;;;;;;;2.67;1.30;;;20.30;42.30;;;;;;5071908;28;20055;-66
2021/04/11 11:55:19;;;;;;;1.65;0.93;;;20.50;41.90;;;;;;5085310;28;20082;-73
2021/04/11 11:57:52;;;;;;;2.55;1.30;;;20.70;41.60;;;;;;5090172;28;20106;-66
2021/04/11 12:00:26;;;;;;;2.85;1.40;;;20.90;41.70;;;;;;5090025;28;20189;-68
2021/04/11 12:03:25;;;;;;;2.60;1.17;;;21.20;42.10;;;;;;5090903;28;20127;-68
2021/04/11 12:05:53;;;;;;;2.63;1.48;;;22.20;38.90;;;;;;5086092;28;20029;-66
2021/04/11 12:08:56;;;;;;;1.83;1.13;;;22.80;38.50;;;;;;5093907;28;20123;-67
2021/04/11 12:11:39;;;;;;;5.40;1.35;;;23.10;38.20;;;;;;5094244;28;20036;-68
2021/04/11 12:14:44;;;;;;;2.65;1.23;;;23.20;38.10;;;;;;5093200;28;20095;-67
2021/04/11 12:17:28;;;;;;;1.23;1.00;;;23.20;37.60;;;;;;5095127;28;20111;-67
2021/04/11 12:20:11;;;;;;;2.35;1.20;;;23.30;37.60;;;;;;5095387;28;20035;-68
2021/04/11 12:22:57;;;;;;;3.08;1.40;;;23.20;37.80;;;;;;5094817;28;20043;-68
2021/04/11 12:25:28;;;;;;;5.07;1.77;;;23.20;37.60;;;;;;5093624;28;20073;-68
2021/04/11 12:27:55;;;;;;;2.42;1.65;;;23.20;37.30;;;;;;5086478;28;20124;-67
2021/04/11 12:30:38;;;;;;;2.63;1.42;;;23.50;37.60;;;;;;5093727;28;20024;-67
2021/04/11 12:33:07;;;;;;;4.80;1.83;;;24.30;36.10;;;;;;5093971;28;20024;-70
2021/04/11 12:36:01;;;;;;;3.38;1.58;;;25.00;35.10;;;;;;5094554;28;20365;-68
2021/04/11 12:38:39;;;;;;;1.40;1.30;;;24.80;34.40;;;;;;5094158;28;20035;-67
2021/04/11 12:41:32;;;;;;;2.42;0.75;;;24.40;35.20;;;;;;5093707;28;20024;-68
2021/04/11 12:44:20;;;;;;;2.25;0.93;;;24.30;35.10;;;;;;5094082;28;20031;-68
2021/04/11 12:47:16;;;;;;;1.30;0.88;;;24.00;35.60;;;;;;5080951;28;20028;-68
2021/04/11 12:50:03;;;;;;;2.33;1.10;;;23.50;36.50;;;;;;5087226;28;20409;-67
2021/04/11 12:52:47;;;;;;;2.53;1.13;;;23.10;37.00;;;;;;5094201;28;20078;-66
2021/04/11 12:55:51;;;;;;;1.55;0.95;;;22.80;39.70;;;;;;5093191;28;20028;-67
2021/04/11 12:58:41;;;;;;;1.23;1.10;;;22.50;41.10;;;;;;5083919;28;20845;-67
2021/04/11 13:01:12;;;;;;;1.98;1.27;;;21.80;42.20;;;;;;5088289;28;20497;-67
2021/04/11 13:03:43;;;;;;;;;;;21.20;43.60;;;;;;5094196;28;20039;-68
2021/04/11 13:06:09;;;;;;;3.10;1.45;;;20.80;45.80;;;;;;5093110;28;19919;-67
2021/04/11 13:09:02;;;;;;;3.15;1.27;;;20.40;45.70;;;;;;5093662;28;20032;-68
2021/04/11 13:11:28;;;;;;;1.52;1.40;;;20.20;46.30;;;;;;5093836;28;20040;-67
2021/04/11 13:14:00;;;;;;;4.40;1.00;;;20.10;46.80;;;;;;5093539;28;20024;-68
2021/04/11 13:16:45;;;;;;;2.78;1.02;;;20.00;46.60;;;;;;5075304;28;20036;-63
2021/04/11 13:19:15;;;;;;;2.10;0.90;;;19.90;46.80;;;;;;5092824;28;20036;-67
2021/04/11 13:22:16;;;;;;;3.33;1.60;;;19.90;46.90;;;;;;5093272;28;20016;-68
2021/04/11 13:25:01;;;;;;;2.40;1.05;;;19.80;47.00;;;;;;5068950;28;20040;-68
2021/04/11 13:27:32;;;;;;;3.15;1.25;;;19.70;47.10;;;;;;5092900;28;20040;-68
2021/04/11 13:30:15;;;;;;;2.20;1.10;;;19.60;47.00;;;;;;5093183;28;20039;-68
2021/04/11 13:32:56;;;;;;;4.15;1.40;;;19.40;48.00;;;;;;5093688;28;20024;-68
2021/04/11 13:35:26;;;;;;;4.28;1.63;;;19.20;48.50;;;;;;5074420;28;20035;-70
2021/04/11 13:38:12;;;;;;;1.55;1.13;;;19.20;48.60;;;;;;5068123;28;20473;-69
2021/04/11 13:40:39;;;;;;;3.13;1.73;;;19.30;48.70;;;;;;5093604;28;20122;-70
2021/04/11 13:43:18;;;;;;;2.70;1.40;;;19.50;48.70;;;;;;5092366;28;20112;-70
2021/04/11 13:45:53;;;;;;;2.85;0.98;;;19.70;49.20;;;;;;5074664;28;20043;-69
2021/04/11 13:48:47;;;;;;;2.45;1.40;;;19.80;47.60;;;;;;5092521;28;20032;-68
2021/04/11 13:51:17;;;;;;;3.72;1.27;;;19.80;48.10;;;;;;5092240;28;20489;-69